TimeCDT,TemperatureF,Dew PointF,Humidity,Sea Level PressureIn,VisibilityMPH,Wind Direction,Wind SpeedMPH,Gust SpeedMPH,PrecipitationIn,Events,Conditions,WindDirDegrees,DateUTC
12:15 AM,40.1,34.5,80,30.22,10.0,NNW,10.4,-,N/A,,Overcast,330,2013-10-24 05:15:00
12:35 AM,40.1,34.2,79,30.22,10.0,NNW,6.9,-,N/A,,Overcast,340,2013-10-24 05:35:00
12:55 AM,40.1,34.7,81,30.23,10.0,NNW,10.4,-,N/A,,Overcast,330,2013-10-24 05:55:00
1:15 AM,40.1,34.7,81,30.24,10.0,NNW,6.9,-,N/A,,Overcast,330,2013-10-24 06:15:00
1:35 AM,39.7,34.5,82,30.24,10.0,NNW,8.1,-,N/A,,Overcast,340,2013-10-24 06:35:00
1:55 AM,39.4,34.7,83,30.26,10.0,NNW,8.1,-,N/A,,Overcast,330,2013-10-24 06:55:00
2:15 AM,37.2,33.8,87,30.26,10.0,NW,6.9,-,N/A,,Scattered Clouds,320,2013-10-24 07:15:00
2:35 AM,35.4,33.1,91,30.26,10.0,NW,9.2,-,N/A,,Clear,310,2013-10-24 07:35:00
2:55 AM,32.9,32.0,96,30.27,10.0,NW,6.9,-,N/A,,Clear,310,2013-10-24 07:55:00
3:15 AM,32.9,32.0,96,30.28,10.0,NW,6.9,-,N/A,,Clear,310,2013-10-24 08:15:00
3:35 AM,32.5,31.6,96,30.28,10.0,NW,5.8,-,N/A,,Clear,310,2013-10-24 08:35:00
3:55 AM,32.9,32.0,96,30.28,10.0,WNW,9.2,-,N/A,,Clear,300,2013-10-24 08:55:00
4:15 AM,32.2,31.3,96,30.28,10.0,WNW,5.8,-,N/A,,Clear,290,2013-10-24 09:15:00
4:35 AM,31.6,31.1,98,30.29,10.0,WNW,8.1,-,N/A,,Clear,290,2013-10-24 09:35:00
4:55 AM,32.0,32.0,100,30.30,10.0,WNW,5.8,-,N/A,,Mostly Cloudy,300,2013-10-24 09:55:00
5:15 AM,32.7,31.8,96,30.30,10.0,WNW,8.1,-,N/A,,Overcast,290,2013-10-24 10:15:00
5:35 AM,31.8,30.7,96,30.31,10.0,WNW,9.2,-,N/A,,Scattered Clouds,300,2013-10-24 10:35:00
5:55 AM,31.8,30.6,95,30.31,10.0,NW,9.2,-,N/A,,Clear,310,2013-10-24 10:55:00
6:15 AM,31.8,30.6,95,30.31,10.0,WNW,9.2,-,N/A,,Clear,300,2013-10-24 11:15:00
6:35 AM,31.3,30.2,96,30.32,10.0,West,8.1,-,N/A,,Clear,280,2013-10-24 11:35:00
6:55 AM,30.4,29.8,98,30.32,10.0,West,8.1,-,N/A,,Clear,280,2013-10-24 11:55:00
7:15 AM,30.0,29.7,99,30.33,10.0,West,9.2,-,N/A,,Clear,270,2013-10-24 12:15:00
7:35 AM,30.0,29.7,99,30.33,10.0,West,8.1,-,N/A,,Clear,270,2013-10-24 12:35:00
7:55 AM,29.7,29.3,99,30.34,10.0,West,6.9,-,N/A,,Clear,270,2013-10-24 12:55:00
8:15 AM,30.2,29.7,98,30.35,10.0,West,8.1,-,N/A,,Clear,270,2013-10-24 13:15:00
8:35 AM,31.5,30.4,96,30.35,10.0,West,10.4,-,N/A,,Clear,270,2013-10-24 13:35:00
8:55 AM,32.0,31.1,96,30.36,10.0,West,9.2,-,N/A,,Clear,270,2013-10-24 13:55:00
9:15 AM,33.3,31.8,94,30.37,10.0,West,9.2,-,N/A,,Clear,270,2013-10-24 14:15:00
9:35 AM,35.2,32.0,88,30.39,10.0,West,10.4,17.3,N/A,,Clear,270,2013-10-24 14:35:00
9:55 AM,36.9,32.4,84,30.39,10.0,West,11.5,19.6,N/A,,Clear,280,2013-10-24 14:55:00
10:15 AM,39.0,32.5,78,30.40,10.0,WNW,10.4,17.3,N/A,,Clear,290,2013-10-24 15:15:00
10:35 AM,40.5,32.2,72,30.40,10.0,NW,10.4,-,N/A,,Clear,310,2013-10-24 15:35:00
10:55 AM,42.4,32.2,67,30.40,10.0,NW,16.1,24.2,N/A,,Clear,320,2013-10-24 15:55:00
11:15 AM,43.5,31.6,63,30.40,10.0,NW,13.8,19.6,N/A,,Clear,310,2013-10-24 16:15:00
11:35 AM,44.2,30.2,58,30.41,10.0,NNW,10.4,17.3,N/A,,Clear,330,2013-10-24 16:35:00
11:55 AM,44.6,29.5,55,30.41,10.0,NW,11.5,18.4,N/A,,Clear,320,2013-10-24 16:55:00
12:15 PM,44.2,26.1,49,30.41,10.0,NW,9.2,16.1,N/A,,Scattered Clouds,310,2013-10-24 17:15:00
12:35 PM,46.0,25.9,45,30.41,10.0,NW,8.1,16.1,N/A,,Scattered Clouds,320,2013-10-24 17:35:00
12:55 PM,46.6,27.0,46,30.40,10.0,NW,11.5,-,N/A,,Clear,320,2013-10-24 17:55:00
1:15 PM,46.9,27.0,46,30.39,10.0,WNW,12.7,16.1,N/A,,Clear,300,2013-10-24 18:15:00
1:35 PM,47.3,27.1,46,30.39,10.0,NW,10.4,16.1,N/A,,Clear,310,2013-10-24 18:35:00
1:55 PM,47.7,26.6,44,30.38,10.0,NW,8.1,-,N/A,,Clear,310,2013-10-24 18:55:00
2:15 PM,47.5,25.3,42,30.38,10.0,NNW,4.6,-,N/A,,Clear,330,2013-10-24 19:15:00
2:35 PM,48.0,26.1,42,30.37,10.0,NW,6.9,-,N/A,,Clear,320,2013-10-24 19:35:00
2:55 PM,48.4,26.8,43,30.36,10.0,West,5.8,-,N/A,,Clear,270,2013-10-24 19:55:00
3:15 PM,48.7,26.2,42,30.36,10.0,North,5.8,-,N/A,,Clear,350,2013-10-24 20:15:00
3:35 PM,49.1,26.8,42,30.36,10.0,West,6.9,-,N/A,,Clear,280,2013-10-24 20:35:00
3:55 PM,48.9,25.7,40,30.35,10.0,North,4.6,-,N/A,,Clear,360,2013-10-24 20:55:00
4:15 PM,48.9,26.4,42,30.35,10.0,West,3.5,-,N/A,,Clear,280,2013-10-24 21:15:00
4:35 PM,49.1,25.7,40,30.35,10.0,NNW,3.5,-,N/A,,Clear,330,2013-10-24 21:35:00
4:55 PM,48.9,25.5,40,30.35,10.0,NW,4.6,-,N/A,,Clear,310,2013-10-24 21:55:00
5:15 PM,48.7,26.8,43,30.35,10.0,NW,4.6,-,N/A,,Clear,310,2013-10-24 22:15:00
5:35 PM,48.0,25.5,41,30.35,10.0,NNE,3.5,-,N/A,,Clear,20,2013-10-24 22:35:00
5:55 PM,47.5,25.7,43,30.35,10.0,NNW,3.5,-,N/A,,Clear,330,2013-10-24 22:55:00
6:15 PM,46.4,25.7,44,30.35,10.0,Calm,Calm,-,N/A,,Clear,0,2013-10-24 23:15:00
6:35 PM,45.3,25.7,46,30.35,10.0,Calm,Calm,-,N/A,,Clear,0,2013-10-24 23:35:00
6:55 PM,42.3,28.2,58,30.35,10.0,Calm,Calm,-,N/A,,Clear,0,2013-10-24 23:55:00
7:15 PM,40.3,30.0,67,30.36,10.0,Calm,Calm,-,N/A,,Clear,0,2013-10-25 00:15:00
7:35 PM,38.5,29.7,71,30.36,10.0,Calm,Calm,-,N/A,,Clear,0,2013-10-25 00:35:00
7:55 PM,37.4,31.3,79,30.36,10.0,Calm,Calm,-,N/A,,Clear,0,2013-10-25 00:55:00
8:15 PM,36.7,31.6,82,30.37,10.0,Calm,Calm,-,N/A,,Clear,0,2013-10-25 01:15:00
8:35 PM,36.0,31.6,84,30.37,10.0,Calm,Calm,-,N/A,,Clear,0,2013-10-25 01:35:00
8:55 PM,35.1,32.4,90,30.37,10.0,Calm,Calm,-,N/A,,Clear,0,2013-10-25 01:55:00
9:15 PM,34.9,32.9,92,30.37,10.0,Calm,Calm,-,N/A,,Clear,0,2013-10-25 02:15:00
9:35 PM,35.4,32.5,89,30.38,10.0,Calm,Calm,-,N/A,,Clear,0,2013-10-25 02:35:00
9:55 PM,34.5,31.8,90,30.38,10.0,Calm,Calm,-,N/A,,Clear,0,2013-10-25 02:55:00
10:15 PM,33.3,30.4,89,30.38,10.0,Calm,Calm,-,N/A,,Clear,0,2013-10-25 03:15:00
10:35 PM,32.0,31.6,99,30.39,10.0,Calm,Calm,-,N/A,,Clear,0,2013-10-25 03:35:00
10:55 PM,32.5,32.2,99,30.39,10.0,Calm,Calm,-,N/A,,Clear,0,2013-10-25 03:55:00
11:15 PM,31.8,31.3,98,30.39,7.0,Calm,Calm,-,N/A,,Clear,0,2013-10-25 04:15:00
11:35 PM,31.6,28.6,88,30.39,10.0,Calm,Calm,-,N/A,,Clear,0,2013-10-25 04:35:00
11:55 PM,32.5,28.2,84,30.39,10.0,Calm,Calm,-,N/A,,Clear,0,2013-10-25 04:55:00